Time;durP1;ratioP1;P1;durP2;ratioP2;P2;SDS_P1;SDS_P2;PMS_P1;PMS_P2;Temp;Humidity;BMP_temperature;BMP_pressure;BME280_temperature;BME280_humidity;BME280_pressure;Samples;Min_cycle;Max_cycle;Signal;HPM_P1;HPM_P2
2023/05/20 00:01:04;;;;;;;;;;;;;;;;;;5025413;28;19941;-79
2023/05/20 00:03:30;;;;;;;;;;;;;;;;;;5029493;28;19913;-78
2023/05/20 00:05:55;;;;;;;;;;;;;;;;;;5025917;28;19913;-77
2023/05/20 00:08:20;;;;;;;;;;;;;;;;;;5025984;28;19924;-77
2023/05/20 00:10:46;;;;;;;;;;;;;;;;;;5027439;28;19913;-78
2023/05/20 00:13:11;;;;;;;;;;;;;;;;;;5027310;28;19921;-79
2023/05/20 00:15:39;;;;;;;;;;;;;;;;;;5006626;28;19964;-79
2023/05/20 00:18:10;;;;;;;;;;;;;;;;;;5023532;28;20453;-79
2023/05/20 00:20:35;;;;;;;;;;;;;;;;;;5014094;28;19920;-77
2023/05/20 00:23:01;;;;;;;;;;;;;;;;;;5022860;28;19921;-77
2023/05/20 00:25:26;;;;;;;;;;;;;;;;;;5020824;28;20328;-78
2023/05/20 00:27:51;;;;;;;;;;;;;;;;;;5018190;28;19998;-78
2023/05/20 00:30:17;;;;;;;;;;;;;;;;;;5015398;28;20004;-77
2023/05/20 00:32:45;;;;;;;;;;;;;;;;;;5015374;28;19917;-78
2023/05/20 00:35:10;;;;;;;;;;;;;;;;;;5014097;28;20364;-77
2023/05/20 00:37:39;;;;;;;;;;;;;;;;;;5012640;28;19914;-77
2023/05/20 00:40:04;;;;;;;;;;;;;;;;;;5014029;28;19921;-77
2023/05/20 00:42:30;;;;;;;;;;;;;;;;;;5013250;28;20330;-77
2023/05/20 00:44:55;;;;;;;;;;;;;;;;;;5013751;28;19914;-78
2023/05/20 00:47:21;;;;;;;;;;;;;;;;;;5013764;28;19920;-77
2023/05/20 00:49:46;;;;;;;;;;;;;;;;;;5013266;28;20015;-78
2023/05/20 00:52:11;;;;;;;;;;;;;;;;;;5013617;28;20019;-78
2023/05/20 00:54:37;;;;;;;;;;;;;;;;;;5004150;28;20404;-79
2023/05/20 00:57:02;;;;;;;;;;;;;;;;;;5013426;28;19965;-78
2023/05/20 00:59:27;;;;;;;;;;;;;;;;;;5011160;28;19921;-78
2023/05/20 01:01:53;;;;;;;;;;;;;;;;;;5011893;28;19921;-77
2023/05/20 01:04:18;;;;;;;;;;;;;;;;;;5011941;28;19975;-78
2023/05/20 01:06:46;;;;;;;;;;;;;;;;;;5012902;28;19914;-78
2023/05/20 01:09:12;;;;;;;;;;;;;;;;;;5011637;28;19917;-77
2023/05/20 01:11:38;;;;;;;;;;;;;;;;;;5011866;28;19920;-78
2023/05/20 01:14:03;;;;;;;;;;;;;;;;;;5011760;28;20376;-78
2023/05/20 01:16:28;;;;;;;;;;;;;;;;;;5012058;28;20377;-78
2023/05/20 01:18:54;;;;;;;;;;;;;;;;;;5013094;28;19934;-79
2023/05/20 01:21:20;;;;;;;;;;;;;;;;;;4992848;28;19937;-78
2023/05/20 01:23:47;;;;;;;;;;;;;;;;;;5012911;28;20008;-77
2023/05/20 01:26:12;;;;;;;;;;;;;;;;;;4995384;28;19996;-78
2023/05/20 01:28:38;;;;;;;;;;;;;;;;;;5011589;28;19920;-77
2023/05/20 01:31:03;;;;;;;;;;;;;;;;;;5012559;28;19924;-78
2023/05/20 01:33:29;;;;;;;;;;;;;;;;;;5013000;28;20385;-77
2023/05/20 01:35:56;;;;;;;;;;;;;;;;;;5012942;28;19959;-78
2023/05/20 01:38:21;;;;;;;;;;;;;;;;;;4989978;28;20367;-77
2023/05/20 01:40:47;;;;;;;;;;;;;;;;;;5011983;28;19927;-77
2023/05/20 01:43:13;;;;;;;;;;;;;;;;;;5012012;28;20000;-77
2023/05/20 01:45:39;;;;;;;;;;;;;;;;;;4979286;28;20012;-77
2023/05/20 01:48:04;;;;;;;;;;;;;;;;;;5013110;28;19917;-77
2023/05/20 01:50:30;;;;;;;;;;;;;;;;;;5011499;28;19914;-77
2023/05/20 01:52:55;;;;;;;;;;;;;;;;;;5011690;28;20448;-77
2023/05/20 01:55:21;;;;;;;;;;;;;;;;;;5012509;28;19971;-76
2023/05/20 01:57:46;;;;;;;;;;;;;;;;;;5011577;28;20407;-77
2023/05/20 02:00:12;;;;;;;;;;;;;;;;;;5011329;28;19918;-77
2023/05/20 02:02:40;;;;;;;;;;;;;;;;;;5012742;28;20415;-77
2023/05/20 02:05:07;;;;;;;;;;;;;;;;;;5011076;28;19997;-77
2023/05/20 02:07:33;;;;;;;;;;;;;;;;;;5011577;28;19948;-78
2023/05/20 02:09:58;;;;;;;;;;;;;;;;;;5005364;28;20292;-78
2023/05/20 02:12:24;;;;;;;;;;;;;;;;;;5016626;28;19913;-77
2023/05/20 02:14:49;;;;;;;;;;;;;;;;;;5017370;28;19921;-77
2023/05/20 02:17:15;;;;;;;;;;;;;;;;;;5018794;28;19972;-77
2023/05/20 02:19:40;;;;;;;;;;;;;;;;;;5019112;28;20368;-77
2023/05/20 02:22:06;;;;;;;;;;;;;;;;;;5026790;28;19914;-79
2023/05/20 02:24:31;;;;;;;;;;;;;;;;;;5038029;28;19920;-77
2023/05/20 02:26:57;;;;;;;;;;;;;;;;;;5037130;28;19914;-79
2023/05/20 02:29:23;;;;;;;;;;;;;;;;;;5026262;28;19921;-77
2023/05/20 02:31:48;;;;;;;;;;;;;;;;;;5023517;28;19935;-77
2023/05/20 02:34:14;;;;;;;;;;;;;;;;;;5030626;28;19988;-79
2023/05/20 02:36:39;;;;;;;;;;;;;;;;;;5030200;28;19920;-78
2023/05/20 02:39:05;;;;;;;;;;;;;;;;;;5029640;28;19953;-77
2023/05/20 02:41:30;;;;;;;;;;;;;;;;;;5004947;28;19920;-78
2023/05/20 02:43:56;;;;;;;;;;;;;;;;;;5026309;28;20384;-76
2023/05/20 02:46:27;;;;;;;;;;;;;;;;;;5017381;28;19914;-78
2023/05/20 02:48:52;;;;;;;;;;;;;;;;;;5005882;28;19913;-78
2023/05/20 02:51:17;;;;;;;;;;;;;;;;;;5016769;28;19959;-77
2023/05/20 02:53:46;;;;;;;;;;;;;;;;;;5020107;28;20020;-78
2023/05/20 02:56:12;;;;;;;;;;;;;;;;;;5013107;28;19963;-77
2023/05/20 02:58:40;;;;;;;;;;;;;;;;;;4983282;28;19918;-78
2023/05/20 03:01:08;;;;;;;;;;;;;;;;;;4986138;28;20381;-78
2023/05/20 03:03:37;;;;;;;;;;;;;;;;;;5009339;28;19963;-77
2023/05/20 03:06:03;;;;;;;;;;;;;;;;;;5026785;28;19924;-76
2023/05/20 03:08:28;;;;;;;;;;;;;;;;;;5023792;28;19910;-77
2023/05/20 03:10:55;;;;;;;;;;;;;;;;;;5017809;28;20356;-77
2023/05/20 03:13:20;;;;;;;;;;;;;;;;;;5016846;28;20010;-77
2023/05/20 03:15:46;;;;;;;;;;;;;;;;;;5014509;28;20069;-77
2023/05/20 03:18:12;;;;;;;;;;;;;;;;;;4998038;28;19917;-77
2023/05/20 03:20:37;;;;;;;;;;;;;;;;;;5014038;28;19914;-77
2023/05/20 03:23:04;;;;;;;;;;;;;;;;;;5012894;28;19914;-78
2023/05/20 03:25:30;;;;;;;;;;;;;;;;;;5014362;28;19967;-78
2023/05/20 03:27:57;;;;;;;;;;;;;;;;;;5015372;28;19913;-76
2023/05/20 03:30:22;;;;;;;;;;;;;;;;;;5007604;28;19921;-78
2023/05/20 03:32:48;;;;;;;;;;;;;;;;;;5015117;28;19992;-77
2023/05/20 03:35:16;;;;;;;;;;;;;;;;;;5013876;28;19944;-77
2023/05/20 03:37:41;;;;;;;;;;;;;;;;;;4997618;28;20305;-77
2023/05/20 03:40:08;;;;;;;;;;;;;;;;;;5014759;28;19975;-77
2023/05/20 03:42:33;;;;;;;;;;;;;;;;;;4997352;28;20292;-77
2023/05/20 03:44:59;;;;;;;;;;;;;;;;;;5014921;28;19919;-77
2023/05/20 03:47:25;;;;;;;;;;;;;;;;;;5013464;28;19917;-78
2023/05/20 03:49:51;;;;;;;;;;;;;;;;;;5013328;28;20427;-78
2023/05/20 03:52:16;;;;;;;;;;;;;;;;;;5014625;28;19913;-77
2023/05/20 03:54:41;;;;;;;;;;;;;;;;;;5013572;28;19971;-77
2023/05/20 03:57:09;;;;;;;;;;;;;;;;;;5013776;28;20374;-78
2023/05/20 03:59:34;;;;;;;;;;;;;;;;;;5014316;28;20016;-77
2023/05/20 04:02:00;;;;;;;;;;;;;;;;;;5013171;28;19948;-78
2023/05/20 04:04:26;;;;;;;;;;;;;;;;;;5013449;28;19913;-77
2023/05/20 04:06:54;;;;;;;;;;;;;;;;;;4995526;28;19971;-76
2023/05/20 04:09:19;;;;;;;;;;;;;;;;;;5014330;28;20193;-77
2023/05/20 04:11:44;;;;;;;;;;;;;;;;;;4993391;28;20455;-78
2023/05/20 04:14:12;;;;;;;;;;;;;;;;;;5001348;28;19929;-77
2023/05/20 04:16:38;;;;;;;;;;;;;;;;;;4996712;28;19914;-78
2023/05/20 04:19:03;;;;;;;;;;;;;;;;;;5001303;28;19958;-78
2023/05/20 04:21:30;;;;;;;;;;;;;;;;;;5014072;28;19917;-78
2023/05/20 04:23:55;;;;;;;;;;;;;;;;;;5013121;28;19917;-77
2023/05/20 04:26:21;;;;;;;;;;;;;;;;;;5012551;28;19976;-78
2023/05/20 04:28:50;;;;;;;;;;;;;;;;;;5012392;28;19913;-77
2023/05/20 04:31:15;;;;;;;;;;;;;;;;;;5013698;28;19922;-77
2023/05/20 04:33:41;;;;;;;;;;;;;;;;;;5012620;28;19925;-78
2023/05/20 04:36:07;;;;;;;;;;;;;;;;;;5012730;28;19944;-79
2023/05/20 04:38:34;;;;;;;;;;;;;;;;;;5012514;28;19948;-78
2023/05/20 04:41:05;;;;;;;;;;;;;;;;;;4992878;28;19956;-79
2023/05/20 04:43:32;;;;;;;;;;;;;;;;;;5011314;28;20438;-77
2023/05/20 04:45:58;;;;;;;;;;;;;;;;;;5013460;28;19916;-79
2023/05/20 04:48:25;;;;;;;;;;;;;;;;;;4996002;28;19918;-79
2023/05/20 04:50:53;;;;;;;;;;;;;;;;;;5012084;28;20392;-78
2023/05/20 04:53:20;;;;;;;;;;;;;;;;;;4993136;28;19914;-78
2023/05/20 04:55:46;;;;;;;;;;;;;;;;;;5013568;28;19949;-78
2023/05/20 04:58:14;;;;;;;;;;;;;;;;;;5011986;28;19979;-78
2023/05/20 05:00:39;;;;;;;;;;;;;;;;;;4976135;28;20410;-78
2023/05/20 05:03:04;;;;;;;;;;;;;;;;;;5007643;28;19913;-79
2023/05/20 05:05:30;;;;;;;;;;;;;;;;;;5008722;28;19921;-78
2023/05/20 05:07:56;;;;;;;;;;;;;;;;;;4999317;28;19921;-77
2023/05/20 05:10:24;;;;;;;;;;;;;;;;;;5011929;28;19918;-78
2023/05/20 05:12:49;;;;;;;;;;;;;;;;;;5008861;28;19964;-77
2023/05/20 05:15:15;;;;;;;;;;;;;;;;;;4997935;28;19921;-77
2023/05/20 05:17:42;;;;;;;;;;;;;;;;;;5011908;28;20416;-78
2023/05/20 05:20:07;;;;;;;;;;;;;;;;;;5005654;28;19968;-78
2023/05/20 05:22:35;;;;;;;;;;;;;;;;;;5011959;28;20000;-77
2023/05/20 05:25:01;;;;;;;;;;;;;;;;;;5008771;28;19964;-78
2023/05/20 05:27:26;;;;;;;;;;;;;;;;;;4983222;28;19913;-77
2023/05/20 05:29:52;;;;;;;;;;;;;;;;;;5011700;28;19924;-77
2023/05/20 05:32:18;;;;;;;;;;;;;;;;;;5006517;28;19979;-78
2023/05/20 05:34:44;;;;;;;;;;;;;;;;;;4993185;28;19921;-79
2023/05/20 05:37:09;;;;;;;;;;;;;;;;;;4995065;28;19920;-77
2023/05/20 05:39:38;;;;;;;;;;;;;;;;;;5011419;28;19921;-77
2023/05/20 05:42:03;;;;;;;;;;;;;;;;;;5011283;28;19914;-78
2023/05/20 05:44:29;;;;;;;;;;;;;;;;;;5011795;28;20403;-77
2023/05/20 05:46:54;;;;;;;;;;;;;;;;;;5010941;28;19921;-77
2023/05/20 05:49:20;;;;;;;;;;;;;;;;;;4976076;28;19920;-77
2023/05/20 05:51:45;;;;;;;;;;;;;;;;;;4985699;28;19914;-78
2023/05/20 05:54:11;;;;;;;;;;;;;;;;;;5013370;28;20329;-78
2023/05/20 05:56:36;;;;;;;;;;;;;;;;;;5012610;28;19913;-79
2023/05/20 05:59:02;;;;;;;;;;;;;;;;;;5020352;28;19928;-78
2023/05/20 06:01:28;;;;;;;;;;;;;;;;;;5024027;28;19920;-78
2023/05/20 06:03:54;;;;;;;;;;;;;;;;;;5002067;28;19913;-78
2023/05/20 06:06:19;;;;;;;;;;;;;;;;;;5018385;28;19913;-78
2023/05/20 06:08:44;;;;;;;;;;;;;;;;;;5027120;28;19936;-77
2023/05/20 06:11:10;;;;;;;;;;;;;;;;;;5026093;28;19945;-78
2023/05/20 06:13:38;;;;;;;;;;;;;;;;;;5006224;28;20391;-78
2023/05/20 06:16:04;;;;;;;;;;;;;;;;;;5012215;28;19914;-78
2023/05/20 06:18:29;;;;;;;;;;;;;;;;;;5011301;28;19956;-77
2023/05/20 06:20:59;;;;;;;;;;;;;;;;;;5011305;28;20439;-77
2023/05/20 06:23:25;;;;;;;;;;;;;;;;;;4994621;28;19914;-77
2023/05/20 06:25:54;;;;;;;;;;;;;;;;;;5010944;28;19917;-77
2023/05/20 06:28:20;;;;;;;;;;;;;;;;;;5011191;28;20412;-77
2023/05/20 06:30:45;;;;;;;;;;;;;;;;;;4994703;28;19924;-78
2023/05/20 06:33:11;;;;;;;;;;;;;;;;;;4995117;28;20253;-79
2023/05/20 06:35:36;;;;;;;;;;;;;;;;;;5012814;28;19917;-78
2023/05/20 06:38:03;;;;;;;;;;;;;;;;;;5011239;28;19928;-77
2023/05/20 06:40:28;;;;;;;;;;;;;;;;;;5010961;28;19953;-77
2023/05/20 06:42:54;;;;;;;;;;;;;;;;;;5012520;28;19918;-79
2023/05/20 06:45:39;;;;;;;;;;;;;;;;;;5012342;28;19920;-79
2023/05/20 06:48:40;;;;;;;;;;;;;;;;;;5001182;28;20368;-79
2023/05/20 06:51:06;;;;;;;;;;;;;;;;;;5010088;28;19921;-76
2023/05/20 06:53:33;;;;;;;;;;;;;;;;;;4991224;28;20401;-79
2023/05/20 06:55:59;;;;;;;;;;;;;;;;;;4986873;28;19975;-77
2023/05/20 06:58:24;;;;;;;;;;;;;;;;;;4997741;28;20333;-78
2023/05/20 07:00:51;;;;;;;;;;;;;;;;;;5014719;28;19913;-78
2023/05/20 07:03:17;;;;;;;;;;;;;;;;;;5014229;28;19914;-78
2023/05/20 07:05:43;;;;;;;;;;;;;;;;;;5014170;28;19920;-77
2023/05/20 07:08:10;;;;;;;;;;;;;;;;;;5014805;28;19913;-78
2023/05/20 07:10:38;;;;;;;;;;;;;;;;;;5015715;28;20372;-79
2023/05/20 07:13:03;;;;;;;;;;;;;;;;;;5000584;28;19913;-79
2023/05/20 07:15:29;;;;;;;;;;;;;;;;;;5015996;28;20403;-80
2023/05/20 07:17:55;;;;;;;;;;;;;;;;;;5008702;28;19952;-77
2023/05/20 07:20:20;;;;;;;;;;;;;;;;;;5015998;28;19913;-77
2023/05/20 07:22:47;;;;;;;;;;;;;;;;;;5017170;28;19920;-79
2023/05/20 07:25:33;;;;;;;;;;;;;;;;;;5012512;28;19918;-79
2023/05/20 07:27:59;;;;;;;;;;;;;;;;;;5024999;28;19920;-79
2023/05/20 07:30:24;;;;;;;;;;;;;;;;;;5018759;28;19918;-77
2023/05/20 07:33:11;;;;;;;;;;;;;;;;;;4999840;28;19957;-78
2023/05/20 07:35:36;;;;;;;;;;;;;;;;;;5014213;28;19925;-77
2023/05/20 07:38:02;;;;;;;;;;;;;;;;;;5014902;28;19921;-76
2023/05/20 07:40:27;;;;;;;;;;;;;;;;;;4996912;28;19913;-78
2023/05/20 07:42:55;;;;;;;;;;;;;;;;;;5013253;28;19918;-78
2023/05/20 07:45:20;;;;;;;;;;;;;;;;;;5013587;28;20436;-77
2023/05/20 07:47:46;;;;;;;;;;;;;;;;;;5013794;28;19936;-79
2023/05/20 07:50:12;;;;;;;;;;;;;;;;;;5013018;28;20380;-76
2023/05/20 07:52:37;;;;;;;;;;;;;;;;;;5013516;28;20067;-78
2023/05/20 07:55:03;;;;;;;;;;;;;;;;;;5014767;28;19947;-77
2023/05/20 07:57:29;;;;;;;;;;;;;;;;;;5009217;28;19913;-78
2023/05/20 07:59:55;;;;;;;;;;;;;;;;;;4996798;28;20034;-77
2023/05/20 08:02:20;;;;;;;;;;;;;;;;;;5013222;28;20007;-77
2023/05/20 08:04:46;;;;;;;;;;;;;;;;;;5013387;28;19917;-79
2023/05/20 08:07:15;;;;;;;;;;;;;;;;;;4992869;28;19929;-79
2023/05/20 08:09:49;;;;;;;;;;;;;;;;;;5012103;28;19921;-78
2023/05/20 08:12:15;;;;;;;;;;;;;;;;;;5010218;28;19918;-77
2023/05/20 08:14:40;;;;;;;;;;;;;;;;;;5013147;28;20369;-77
2023/05/20 08:17:06;;;;;;;;;;;;;;;;;;5008011;28;20411;-79
2023/05/20 08:19:31;;;;;;;;;;;;;;;;;;5011279;28;19988;-79
2023/05/20 08:21:57;;;;;;;;;;;;;;;;;;5014291;28;20465;-78
2023/05/20 08:24:22;;;;;;;;;;;;;;;;;;4995013;28;19913;-78
2023/05/20 08:26:51;;;;;;;;;;;;;;;;;;5012588;28;19971;-80
2023/05/20 08:29:17;;;;;;;;;;;;;;;;;;5012401;28;19935;-80
2023/05/20 08:31:43;;;;;;;;;;;;;;;;;;5012800;28;20393;-77
2023/05/20 08:34:08;;;;;;;;;;;;;;;;;;4996455;28;19971;-77
2023/05/20 08:36:34;;;;;;;;;;;;;;;;;;5011320;28;20446;-77
2023/05/20 08:39:00;;;;;;;;;;;;;;;;;;4992987;28;19913;-78
2023/05/20 08:41:26;;;;;;;;;;;;;;;;;;5004522;28;19917;-79
2023/05/20 08:43:52;;;;;;;;;;;;;;;;;;5012807;28;19964;-79
2023/05/20 08:46:18;;;;;;;;;;;;;;;;;;5013198;28;19921;-79
2023/05/20 08:48:43;;;;;;;;;;;;;;;;;;4997006;28;20427;-79
2023/05/20 08:51:12;;;;;;;;;;;;;;;;;;5013972;28;19937;-80
2023/05/20 08:53:40;;;;;;;;;;;;;;;;;;5014401;28;19921;-81
2023/05/20 08:56:06;;;;;;;;;;;;;;;;;;5015630;28;19920;-82
2023/05/20 08:58:32;;;;;;;;;;;;;;;;;;5027880;28;20009;-78
2023/05/20 09:01:00;;;;;;;;;;;;;;;;;;5009675;28;19914;-79
2023/05/20 09:03:26;;;;;;;;;;;;;;;;;;5020876;28;19984;-78
2023/05/20 09:05:51;;;;;;;;;;;;;;;;;;5020311;28;19924;-78
2023/05/20 09:08:17;;;;;;;;;;;;;;;;;;5020139;28;19914;-79
2023/05/20 09:10:42;;;;;;;;;;;;;;;;;;5022356;28;19914;-79
2023/05/20 09:13:08;;;;;;;;;;;;;;;;;;5020319;28;19920;-78
2023/05/20 09:15:33;;;;;;;;;;;;;;;;;;5018184;28;19949;-80
2023/05/20 09:17:59;;;;;;;;;;;;;;;;;;5018572;28;20000;-79
2023/05/20 09:20:25;;;;;;;;;;;;;;;;;;5015112;28;19910;-80
2023/05/20 09:22:50;;;;;;;;;;;;;;;;;;5015837;28;19913;-79
2023/05/20 09:25:16;;;;;;;;;;;;;;;;;;5011869;28;19914;-80
2023/05/20 09:27:41;;;;;;;;;;;;;;;;;;5012336;28;19917;-80
2023/05/20 09:30:07;;;;;;;;;;;;;;;;;;5013660;28;20439;-80
2023/05/20 09:32:32;;;;;;;;;;;;;;;;;;5013928;28;19922;-80
2023/05/20 09:35:00;;;;;;;;;;;;;;;;;;4992926;28;20289;-81
2023/05/20 09:37:25;;;;;;;;;;;;;;;;;;5004015;28;19913;-78
2023/05/20 09:39:50;;;;;;;;;;;;;;;;;;5012843;28;19921;-79
2023/05/20 09:42:16;;;;;;;;;;;;;;;;;;5011646;28;20332;-79
2023/05/20 09:44:41;;;;;;;;;;;;;;;;;;5012618;28;19917;-81
2023/05/20 09:47:09;;;;;;;;;;;;;;;;;;5011546;28;19991;-80
2023/05/20 09:49:35;;;;;;;;;;;;;;;;;;5011424;28;20265;-79
2023/05/20 09:52:00;;;;;;;;;;;;;;;;;;5011560;28;20016;-79
2023/05/20 09:54:26;;;;;;;;;;;;;;;;;;5012445;28;19925;-79
2023/05/20 09:56:51;;;;;;;;;;;;;;;;;;5011337;28;20388;-79
2023/05/20 09:59:17;;;;;;;;;;;;;;;;;;4975518;28;19958;-79
2023/05/20 10:01:42;;;;;;;;;;;;;;;;;;5006523;28;20304;-80
2023/05/20 10:04:07;;;;;;;;;;;;;;;;;;5013426;28;19913;-79
2023/05/20 10:06:33;;;;;;;;;;;;;;;;;;5013040;28;19918;-78
2023/05/20 10:08:58;;;;;;;;;;;;;;;;;;5013065;28;19913;-80
2023/05/20 10:11:23;;;;;;;;;;;;;;;;;;5012074;28;19953;-79
2023/05/20 10:13:52;;;;;;;;;;;;;;;;;;5012298;28;19921;-80
2023/05/20 10:16:17;;;;;;;;;;;;;;;;;;5012507;28;20009;-79
2023/05/20 10:18:43;;;;;;;;;;;;;;;;;;5011351;28;19956;-79
2023/05/20 10:21:08;;;;;;;;;;;;;;;;;;5012760;28;20000;-79
2023/05/20 10:23:36;;;;;;;;;;;;;;;;;;5012727;28;19917;-79
2023/05/20 10:26:01;;;;;;;;;;;;;;;;;;5011037;28;19921;-80
2023/05/20 10:28:27;;;;;;;;;;;;;;;;;;5011017;28;19914;-80
2023/05/20 10:30:52;;;;;;;;;;;;;;;;;;4991349;28;20024;-80
2023/05/20 10:33:18;;;;;;;;;;;;;;;;;;5003761;28;20023;-79
2023/05/20 10:35:44;;;;;;;;;;;;;;;;;;5014453;28;19983;-80
2023/05/20 10:38:09;;;;;;;;;;;;;;;;;;5012877;28;20286;-79
2023/05/20 10:40:35;;;;;;;;;;;;;;;;;;4997368;28;20276;-80
2023/05/20 10:43:00;;;;;;;;;;;;;;;;;;5015635;28;19939;-80
2023/05/20 10:45:26;;;;;;;;;;;;;;;;;;5014939;28;19914;-80
2023/05/20 10:47:51;;;;;;;;;;;;;;;;;;5015883;28;19964;-80
2023/05/20 10:50:17;;;;;;;;;;;;;;;;;;5015457;28;19913;-80
2023/05/20 10:52:42;;;;;;;;;;;;;;;;;;5014452;28;19948;-80
2023/05/20 10:55:11;;;;;;;;;;;;;;;;;;4992627;28;19979;-79
2023/05/20 10:57:36;;;;;;;;;;;;;;;;;;4997452;28;20388;-79
2023/05/20 11:00:09;;;;;;;;;;;;;;;;;;5014565;28;19957;-80
2023/05/20 11:02:35;;;;;;;;;;;;;;;;;;4998879;28;19991;-80
2023/05/20 11:05:00;;;;;;;;;;;;;;;;;;4998535;28;20019;-79
2023/05/20 11:07:26;;;;;;;;;;;;;;;;;;5015497;28;20005;-81
2023/05/20 11:09:52;;;;;;;;;;;;;;;;;;5015175;28;19918;-79
2023/05/20 11:12:17;;;;;;;;;;;;;;;;;;5017202;28;19926;-79
2023/05/20 11:14:42;;;;;;;;;;;;;;;;;;5015968;28;20020;-79
2023/05/20 11:17:08;;;;;;;;;;;;;;;;;;5016729;28;20377;-80
2023/05/20 11:19:36;;;;;;;;;;;;;;;;;;5015880;28;19917;-80
2023/05/20 11:22:02;;;;;;;;;;;;;;;;;;5015168;28;19917;-79
2023/05/20 11:24:27;;;;;;;;;;;;;;;;;;5016571;28;19994;-80
2023/05/20 11:26:53;;;;;;;;;;;;;;;;;;5015001;28;20292;-79
2023/05/20 11:29:18;;;;;;;;;;;;;;;;;;5017429;28;20407;-80
2023/05/20 11:31:44;;;;;;;;;;;;;;;;;;5015309;28;19997;-81
2023/05/20 11:34:10;;;;;;;;;;;;;;;;;;4999937;28;19918;-78
2023/05/20 11:36:36;;;;;;;;;;;;;;;;;;5017807;28;19913;-80
2023/05/20 11:39:02;;;;;;;;;;;;;;;;;;5020451;28;19914;-81
2023/05/20 11:41:28;;;;;;;;;;;;;;;;;;5023432;28;19980;-79
2023/05/20 11:43:53;;;;;;;;;;;;;;;;;;5023146;28;19961;-80
2023/05/20 11:46:18;;;;;;;;;;;;;;;;;;5022192;28;19913;-80
2023/05/20 11:48:47;;;;;;;;;;;;;;;;;;4986708;28;19920;-80
2023/05/20 11:51:13;;;;;;;;;;;;;;;;;;4997339;28;20012;-80
2023/05/20 11:53:38;;;;;;;;;;;;;;;;;;5024059;28;19918;-79
2023/05/20 11:56:04;;;;;;;;;;;;;;;;;;5026547;28;20012;-80
2023/05/20 11:58:29;;;;;;;;;;;;;;;;;;5022110;28;19913;-80
2023/05/20 12:00:54;;;;;;;;;;;;;;;;;;5018736;28;20390;-80
2023/05/20 12:03:20;;;;;;;;;;;;;;;;;;5012341;28;20005;-80
2023/05/20 12:05:49;;;;;;;;;;;;;;;;;;5018747;28;20446;-80
2023/05/20 12:08:18;;;;;;;;;;;;;;;;;;5014482;28;19985;-80
2023/05/20 12:10:46;;;;;;;;;;;;;;;;;;5015784;28;20048;-81
2023/05/20 12:13:15;;;;;;;;;;;;;;;;;;5018888;28;19914;-79
2023/05/20 12:15:40;;;;;;;;;;;;;;;;;;5018658;28;19914;-80
2023/05/20 12:18:05;;;;;;;;;;;;;;;;;;5019152;28;19996;-80
2023/05/20 12:20:33;;;;;;;;;;;;;;;;;;4982301;28;19921;-80
2023/05/20 12:22:58;;;;;;;;;;;;;;;;;;5002022;28;19970;-80
2023/05/20 12:25:24;;;;;;;;;;;;;;;;;;5014788;28;19914;-80
2023/05/20 12:27:50;;;;;;;;;;;;;;;;;;5015456;28;19913;-80
2023/05/20 12:30:16;;;;;;;;;;;;;;;;;;4996873;28;19918;-79
2023/05/20 12:32:42;;;;;;;;;;;;;;;;;;5013344;28;19920;-78
2023/05/20 12:35:07;;;;;;;;;;;;;;;;;;5013270;28;19961;-81
2023/05/20 12:37:33;;;;;;;;;;;;;;;;;;5015131;28;19936;-81
2023/05/20 12:39:58;;;;;;;;;;;;;;;;;;5014152;28;19948;-80
2023/05/20 12:42:23;;;;;;;;;;;;;;;;;;4977537;28;20343;-79
2023/05/20 12:44:49;;;;;;;;;;;;;;;;;;4998975;28;19964;-77
2023/05/20 12:47:15;;;;;;;;;;;;;;;;;;4992996;28;20001;-79
2023/05/20 12:49:40;;;;;;;;;;;;;;;;;;5005968;28;20008;-80
2023/05/20 12:52:05;;;;;;;;;;;;;;;;;;5014169;28;20339;-78
2023/05/20 12:54:33;;;;;;;;;;;;;;;;;;4998797;28;20249;-80
2023/05/20 12:56:59;;;;;;;;;;;;;;;;;;5016299;28;19954;-79
2023/05/20 12:59:25;;;;;;;;;;;;;;;;;;5016096;28;20268;-80
2023/05/20 13:01:50;;;;;;;;;;;;;;;;;;4997695;28;19913;-81
2023/05/20 13:04:16;;;;;;;;;;;;;;;;;;5013194;28;20417;-79
2023/05/20 13:06:41;;;;;;;;;;;;;;;;;;5014027;28;19914;-80
2023/05/20 13:09:07;;;;;;;;;;;;;;;;;;5012333;28;20392;-81
2023/05/20 13:11:32;;;;;;;;;;;;;;;;;;5013599;28;19924;-80
2023/05/20 13:13:58;;;;;;;;;;;;;;;;;;5012656;28;19918;-79
2023/05/20 13:16:23;;;;;;;;;;;;;;;;;;5012363;28;19920;-80
2023/05/20 13:18:51;;;;;;;;;;;;;;;;;;5013470;28;19964;-79
2023/05/20 13:21:17;;;;;;;;;;;;;;;;;;5013237;28;19914;-79
2023/05/20 13:23:42;;;;;;;;;;;;;;;;;;5012382;28;19967;-80
2023/05/20 13:26:08;;;;;;;;;;;;;;;;;;5012898;28;19914;-79
2023/05/20 13:28:34;;;;;;;;;;;;;;;;;;5011930;28;20020;-79
2023/05/20 13:31:00;;;;;;;;;;;;;;;;;;5013056;28;19974;-80
2023/05/20 13:33:25;;;;;;;;;;;;;;;;;;4995410;28;20560;-80
2023/05/20 13:35:50;;;;;;;;;;;;;;;;;;5013093;28;20468;-81
2023/05/20 13:38:16;;;;;;;;;;;;;;;;;;5011666;28;19913;-80
2023/05/20 13:40:41;;;;;;;;;;;;;;;;;;5010499;28;19941;-80
2023/05/20 13:43:07;;;;;;;;;;;;;;;;;;5012927;28;20411;-80
2023/05/20 13:45:32;;;;;;;;;;;;;;;;;;5012907;28;20008;-82
2023/05/20 13:47:57;;;;;;;;;;;;;;;;;;5012639;28;19977;-81
2023/05/20 13:50:26;;;;;;;;;;;;;;;;;;5013027;28;20028;-80
2023/05/20 13:52:51;;;;;;;;;;;;;;;;;;5013084;28;19925;-80
2023/05/20 13:55:17;;;;;;;;;;;;;;;;;;5012844;28;20272;-79
2023/05/20 13:57:42;;;;;;;;;;;;;;;;;;5013170;28;19917;-80
2023/05/20 14:00:08;;;;;;;;;;;;;;;;;;5013674;28;19925;-80
2023/05/20 14:02:34;;;;;;;;;;;;;;;;;;5014543;28;19920;-81
2023/05/20 14:04:59;;;;;;;;;;;;;;;;;;5012718;28;19913;-78
2023/05/20 14:07:25;;;;;;;;;;;;;;;;;;5011266;28;19913;-79
2023/05/20 14:09:50;;;;;;;;;;;;;;;;;;5013060;28;19913;-81
2023/05/20 14:12:15;;;;;;;;;;;;;;;;;;5012110;28;20388;-79
2023/05/20 14:14:41;;;;;;;;;;;;;;;;;;5013499;28;19924;-79
2023/05/20 14:17:07;;;;;;;;;;;;;;;;;;5011862;28;19914;-79
2023/05/20 14:19:32;;;;;;;;;;;;;;;;;;5013614;28;19971;-80
2023/05/20 14:21:59;;;;;;;;;;;;;;;;;;5014694;28;19921;-80
2023/05/20 14:24:25;;;;;;;;;;;;;;;;;;5011355;28;20015;-79
2023/05/20 14:26:50;;;;;;;;;;;;;;;;;;5011543;28;19918;-80
2023/05/20 14:29:16;;;;;;;;;;;;;;;;;;5013100;28;19913;-79
2023/05/20 14:31:41;;;;;;;;;;;;;;;;;;4995007;28;20313;-80
2023/05/20 14:34:06;;;;;;;;;;;;;;;;;;5012234;28;19917;-80
2023/05/20 14:36:32;;;;;;;;;;;;;;;;;;5012561;28;19918;-79
2023/05/20 14:38:57;;;;;;;;;;;;;;;;;;4996270;28;19913;-79
2023/05/20 14:41:23;;;;;;;;;;;;;;;;;;5013191;28;19920;-79
2023/05/20 14:43:48;;;;;;;;;;;;;;;;;;4996540;28;19914;-81
2023/05/20 14:46:14;;;;;;;;;;;;;;;;;;5015199;28;19920;-81
2023/05/20 14:48:39;;;;;;;;;;;;;;;;;;5012401;28;20407;-80
2023/05/20 14:51:05;;;;;;;;;;;;;;;;;;5015546;28;20284;-81
2023/05/20 14:53:35;;;;;;;;;;;;;;;;;;5014983;28;20015;-81
2023/05/20 14:56:01;;;;;;;;;;;;;;;;;;5018019;28;19914;-80
2023/05/20 14:58:26;;;;;;;;;;;;;;;;;;5020810;28;19914;-79
2023/05/20 15:00:51;;;;;;;;;;;;;;;;;;5025524;28;19918;-79
2023/05/20 15:03:19;;;;;;;;;;;;;;;;;;5027924;28;19913;-79
2023/05/20 15:05:45;;;;;;;;;;;;;;;;;;5028704;28;19914;-78
2023/05/20 15:08:10;;;;;;;;;;;;;;;;;;5009406;28;19945;-79
2023/05/20 15:10:36;;;;;;;;;;;;;;;;;;5014395;28;19913;-79
2023/05/20 15:13:01;;;;;;;;;;;;;;;;;;5011309;28;19919;-79
2023/05/20 15:15:27;;;;;;;;;;;;;;;;;;5011923;28;20009;-79
2023/05/20 15:17:52;;;;;;;;;;;;;;;;;;5012103;28;20351;-81
2023/05/20 15:20:17;;;;;;;;;;;;;;;;;;5014447;28;19913;-80
2023/05/20 15:22:47;;;;;;;;;;;;;;;;;;5015241;28;20337;-80
2023/05/20 15:25:12;;;;;;;;;;;;;;;;;;5015083;28;20131;-79
2023/05/20 15:27:37;;;;;;;;;;;;;;;;;;5016098;28;19921;-79
2023/05/20 15:30:03;;;;;;;;;;;;;;;;;;5015657;28;19917;-79
2023/05/20 15:32:28;;;;;;;;;;;;;;;;;;5014868;28;19913;-80
2023/05/20 15:34:54;;;;;;;;;;;;;;;;;;5015554;28;19921;-80
2023/05/20 15:37:20;;;;;;;;;;;;;;;;;;5007635;28;19914;-81
2023/05/20 15:39:45;;;;;;;;;;;;;;;;;;5014978;28;20399;-80
2023/05/20 15:42:12;;;;;;;;;;;;;;;;;;4997203;28;20016;-80
2023/05/20 15:44:38;;;;;;;;;;;;;;;;;;5015081;28;19913;-80
2023/05/20 15:47:05;;;;;;;;;;;;;;;;;;5013756;28;19917;-80
2023/05/20 15:49:31;;;;;;;;;;;;;;;;;;5011745;28;20652;-81
2023/05/20 15:51:59;;;;;;;;;;;;;;;;;;5015463;28;19920;-81
2023/05/20 15:54:24;;;;;;;;;;;;;;;;;;4997961;28;19921;-82
2023/05/20 15:56:50;;;;;;;;;;;;;;;;;;5015131;28;19918;-82
2023/05/20 15:59:15;;;;;;;;;;;;;;;;;;5018431;28;20344;-83
2023/05/20 16:01:41;;;;;;;;;;;;;;;;;;5002230;28;19913;-82
2023/05/20 16:04:06;;;;;;;;;;;;;;;;;;4983496;28;20316;-81
2023/05/20 16:06:33;;;;;;;;;;;;;;;;;;5006503;28;19980;-81
2023/05/20 16:08:58;;;;;;;;;;;;;;;;;;5015545;28;19931;-82
2023/05/20 16:11:23;;;;;;;;;;;;;;;;;;5007484;28;20357;-81
2023/05/20 16:13:49;;;;;;;;;;;;;;;;;;4997738;28;19913;-81
2023/05/20 16:16:15;;;;;;;;;;;;;;;;;;5013869;28;20335;-82
2023/05/20 16:18:40;;;;;;;;;;;;;;;;;;4997723;28;19936;-81
2023/05/20 16:21:06;;;;;;;;;;;;;;;;;;5013873;28;20384;-82
2023/05/20 16:23:32;;;;;;;;;;;;;;;;;;5016780;28;19971;-80
2023/05/20 16:25:57;;;;;;;;;;;;;;;;;;5014880;28;19914;-81
2023/05/20 16:28:24;;;;;;;;;;;;;;;;;;5014715;28;20292;-81
2023/05/20 16:30:53;;;;;;;;;;;;;;;;;;5031635;23;20403;-75
2023/05/20 16:33:18;;;;;;;;;;;;;;;;;;5054173;28;19988;-77
2023/05/20 16:35:47;;;;;;;;;;;;;;;;;;5054150;28;19924;-78
2023/05/20 16:38:12;;;;;;;;;;;;;;;;;;5054898;28;19920;-78